Time;durP1;ratioP1;P1;durP2;ratioP2;P2;SDS_P1;SDS_P2;PMS_P1;PMS_P2;Temp;Humidity;BMP_temperature;BMP_pressure;BME280_temperature;BME280_humidity;BME280_pressure;Samples;Min_cycle;Max_cycle;Signal;HPM_P1;HPM_P2
2022/09/28 00:00:52;;;;;;;0.55;0.22;;;;;;;19.05;48.87;99562.41;16125070;19;129319;-60
2022/09/28 00:06:17;;;;;;;1.85;0.30;;;;;;;19.04;49.12;99557.97;16122433;19;130344;-60
2022/09/28 00:11:39;;;;;;;0.63;0.30;;;;;;;19.03;48.94;99545.22;16121905;19;130112;-57
2022/09/28 00:17:00;;;;;;;0.75;0.20;;;;;;;19.03;49.16;99561.00;16118858;19;129812;-59
2022/09/28 00:22:22;;;;;;;0.60;0.20;;;;;;;19.03;49.17;99575.72;16127848;19;129448;-60
2022/09/28 00:27:48;;;;;;;0.20;0.20;;;;;;;19.02;48.66;99574.06;16136172;19;129798;-60
2022/09/28 00:33:10;;;;;;;0.70;0.20;;;;;;;19.00;48.94;99579.03;16135694;19;130138;-60
2022/09/28 00:38:32;;;;;;;0.63;0.22;;;;;;;18.99;49.19;99577.38;16137487;19;129474;-57
2022/09/28 00:44:25;;;;;;;1.75;0.20;;;;;;;19.00;48.66;99578.22;16138069;19;129440;-58
2022/09/28 00:49:58;;;;;;;0.40;0.20;;;;;;;18.98;49.18;99574.91;16135090;19;129487;-60
2022/09/28 00:55:28;;;;;;;0.47;0.15;;;;;;;18.97;48.64;99579.59;16133520;19;129326;-60
2022/09/28 01:00:49;;;;;;;0.45;0.17;;;;;;;18.96;49.06;99582.66;16133693;19;129788;-56
2022/09/28 01:06:19;;;;;;;0.98;0.30;;;;;;;18.95;49.15;99587.41;16134149;19;130978;-58
2022/09/28 01:11:41;;;;;;;0.20;0.17;;;;;;;18.95;49.17;99576.31;16132933;19;129730;-58
2022/09/28 01:17:06;;;;;;;0.52;0.20;;;;;;;;;;16135888;19;129397;-58
2022/09/28 01:22:52;;;;;;;0.30;0.20;;;;;;;18.93;48.85;99581.28;16133350;19;129065;-60
2022/09/28 01:28:17;;;;;;;1.25;0.10;;;;;;;18.90;48.71;99579.09;16135582;19;129435;-60
2022/09/28 01:33:44;;;;;;;0.20;0.20;;;;;;;18.89;48.80;99571.88;16133196;19;129414;-60
2022/09/28 01:39:31;;;;;;;0.47;0.22;;;;;;;18.89;49.08;99580.19;16133643;19;129566;-60
2022/09/28 01:44:59;;;;;;;0.20;0.13;;;;;;;18.88;49.00;99575.75;16131800;19;129966;-60
2022/09/28 01:50:24;;;;;;;0.10;0.10;;;;;;;18.86;48.92;99572.44;16131393;19;129057;-57
2022/09/28 01:55:51;;;;;;;0.10;0.10;;;;;;;18.86;48.77;99572.44;16129903;19;129917;-60
2022/09/28 02:01:20;;;;;;;0.30;0.10;;;;;;;18.86;49.09;99575.19;16133408;19;129685;-60
2022/09/28 02:06:48;;;;;;;0.35;0.17;;;;;;;18.85;48.79;99566.06;16132076;19;130113;-60
2022/09/28 02:12:15;;;;;;;0.32;0.20;;;;;;;18.84;48.92;99575.50;16132549;19;129973;-60
2022/09/28 02:17:37;;;;;;;0.30;0.10;;;;;;;18.84;48.65;99569.09;16132216;19;130833;-59
2022/09/28 02:23:01;;;;;;;0.32;0.10;;;;;;;18.83;48.79;99575.78;16129304;19;129182;-60
2022/09/28 02:28:23;;;;;;;0.40;0.10;;;;;;;18.83;49.04;99573.00;16128220;19;129474;-58
2022/09/28 02:33:46;;;;;;;0.10;0.10;;;;;;;18.82;48.60;99579.66;16130149;19;129587;-58
2022/09/28 02:39:16;;;;;;;0.35;0.10;;;;;;;18.82;48.73;99576.88;16129604;19;130132;-57
2022/09/28 02:44:49;;;;;;;0.20;0.10;;;;;;;18.81;48.75;99572.47;16125721;19;130314;-59
2022/09/28 02:50:28;;;;;;;0.30;0.10;;;;;;;18.82;48.97;99568.56;16129707;19;129279;-61
2022/09/28 02:56:11;;;;;;;0.68;0.15;;;;;;;18.80;48.58;99570.78;16129046;19;129749;-60
2022/09/28 03:01:44;;;;;;;0.10;0.10;;;;;;;18.77;49.04;99564.69;16129086;19;129898;-61
2022/09/28 03:07:24;;;;;;;0.15;0.10;;;;;;;18.79;49.02;99575.50;16124748;19;129863;-60
2022/09/28 03:12:47;;;;;;;0.43;0.25;;;;;;;18.77;48.83;99580.47;16128875;19;130624;-58
2022/09/28 03:18:09;;;;;;;0.08;0.08;;;;;;;18.76;49.06;99592.69;16126828;19;129512;-56
2022/09/28 03:23:32;;;;;;;0.47;0.10;;;;;;;18.76;48.61;99596.28;16128180;19;134495;-59
2022/09/28 03:28:53;;;;;;;0.10;0.10;;;;;;;18.75;48.75;99593.81;16124254;19;130110;-60
2022/09/28 03:34:15;;;;;;;1.08;0.35;;;;;;;18.74;49.05;99592.97;16131866;19;129412;-60
2022/09/28 03:39:36;;;;;;;0.10;0.10;;;;;;;18.74;48.99;99581.88;16124805;19;129640;-58
2022/09/28 03:44:58;;;;;;;0.10;0.10;;;;;;;18.73;49.08;99576.63;16127911;19;129051;-57
2022/09/28 03:50:20;;;;;;;1.98;0.47;;;;;;;18.72;48.89;99578.53;16126814;19;131143;-60
2022/09/28 03:55:42;;;;;;;0.80;0.20;;;;;;;18.72;48.55;99583.28;16123543;19;129405;-60
2022/09/28 04:01:07;;;;;;;0.25;0.10;;;;;;;18.71;49.00;99571.34;16121498;19;129628;-60
2022/09/28 04:06:33;;;;;;;0.10;0.10;;;;;;;18.71;48.72;99570.53;16124598;19;130355;-58
2022/09/28 04:11:55;;;;;;;0.20;0.15;;;;;;;18.69;48.65;99568.06;16122259;19;129708;-60
2022/09/28 04:17:24;;;;;;;0.10;0.10;;;;;;;18.70;48.68;99579.94;16120175;19;129865;-58
2022/09/28 04:22:46;;;;;;;0.25;0.20;;;;;;;18.68;48.81;99577.47;16122741;19;129476;-58
2022/09/28 04:33:48;;;;;;;0.08;0.08;;;;;;;18.67;48.77;99586.88;16119955;19;129472;-61
2022/09/28 04:39:11;;;;;;;0.10;0.10;;;;;;;18.67;48.56;99581.34;16119449;19;129612;-59
2022/09/28 04:44:33;;;;;;;0.38;0.20;;;;;;;18.65;48.94;99586.31;16119873;19;129837;-71
2022/09/28 04:49:55;;;;;;;0.10;0.10;;;;;;;18.65;48.97;99583.56;16120328;19;129771;-64
2022/09/28 04:55:17;;;;;;;0.10;0.10;;;;;;;18.65;48.78;99588.25;16120299;19;129432;-60
2022/09/28 05:00:39;;;;;;;0.63;0.10;;;;;;;18.64;48.53;99587.44;16120826;19;129903;-60
2022/09/28 05:06:00;;;;;;;0.10;0.10;;;;;;;18.63;48.91;99594.09;16121298;19;129456;-60
2022/09/28 05:11:22;;;;;;;0.70;0.28;;;;;;;18.66;48.76;99585.22;16135600;19;130091;-61
2022/09/28 05:16:44;;;;;;;0.98;0.10;;;;;;;18.76;48.56;99584.38;16129518;19;130383;-59
2022/09/28 05:22:10;;;;;;;3.70;0.10;;;;;;;18.81;48.63;99591.84;16134402;19;129713;-57
2022/09/28 05:27:31;;;;;;;0.43;0.15;;;;;;;18.86;48.61;99594.59;16133376;19;129553;-51
2022/09/28 05:32:53;;;;;;;3.00;0.15;;;;;;;18.87;48.63;99593.50;16131911;19;129638;-55
2022/09/28 05:38:15;;;;;;;0.10;0.10;;;;;;;18.88;48.13;99592.38;16129757;19;129813;-53
2022/09/28 05:43:37;;;;;;;0.13;0.08;;;;;;;18.88;48.18;99589.59;16124166;19;130745;-53
2022/09/28 05:48:59;;;;;;;1.23;0.10;;;;;;;18.86;48.21;99595.44;16130848;19;129570;-53
2022/09/28 05:54:20;;;;;;;0.20;0.10;;;;;;;18.85;48.55;99592.94;16129344;19;131212;-57
2022/09/28 05:59:42;;;;;;;0.60;0.20;;;;;;;18.85;48.54;99598.47;16128019;19;129281;-53
2022/09/28 06:05:04;;;;;;;0.20;0.08;;;;;;;18.83;48.08;99600.72;16127400;19;130390;-55
2022/09/28 06:10:27;;;;;;;0.75;0.10;;;;;;;18.81;48.34;99603.75;16126706;19;131118;-52
2022/09/28 06:15:49;;;;;;;0.40;0.15;;;;;;;18.79;48.42;99605.97;16125869;19;129504;-57
2022/09/28 06:21:12;;;;;;;3.17;0.25;;;;;;;18.82;48.58;99610.13;16130325;19;129466;-53
2022/09/28 06:26:33;;;;;;;1.15;0.20;;;;;;;18.85;48.08;99617.88;16130449;19;129069;-55
2022/09/28 06:31:55;;;;;;;1.58;0.20;;;;;;;18.90;48.31;99615.09;16128037;19;130012;-51
2022/09/28 06:37:17;;;;;;;3.10;0.20;;;;;;;19.01;47.89;99635.31;16127483;19;130452;-54
2022/09/28 06:42:39;;;;;;;0.20;0.10;;;;;;;19.07;48.08;99640.56;16128180;19;129340;-51
2022/09/28 06:48:01;;;;;;;0.70;0.20;;;;;;;19.16;47.67;99640.00;16127932;19;129513;-51
2022/09/28 06:53:23;;;;;;;1.65;0.30;;;;;;;19.22;47.64;99644.44;16126664;19;129376;-52
2022/09/28 06:58:45;;;;;;;0.82;0.25;;;;;;;19.24;47.93;99642.22;16124092;19;129945;-52
2022/09/28 07:04:06;;;;;;;0.88;0.17;;;;;;;19.27;47.68;99638.88;16126766;19;129472;-53
2022/09/28 07:09:28;;;;;;;1.10;0.22;;;;;;;19.33;47.30;99651.59;16122860;19;129985;-51
2022/09/28 07:14:56;;;;;;;4.95;0.20;;;;;;;19.38;47.71;99654.38;16124579;19;129627;-50
2022/09/28 07:20:18;;;;;;;8.55;0.63;;;;;;;19.48;47.40;99658.22;16123600;19;129093;-50
2022/09/28 07:25:44;;;;;;;13.52;0.80;;;;;;;19.58;47.46;99660.94;16125063;19;129427;-60
2022/09/28 07:31:06;;;;;;;14.85;0.82;;;;;;;20.00;46.87;99667.16;16123120;19;129437;-50
2022/09/28 07:36:29;;;;;;;12.95;1.27;;;;;;;21.74;43.86;99662.28;16122087;19;129820;-49
2022/09/28 07:41:51;;;;;;;10.60;1.38;;;;;;;22.06;42.73;99664.34;16121944;19;130321;-50
2022/09/28 07:47:25;;;;;;;12.30;1.15;;;;;;;21.65;42.73;99679.63;16122358;19;129947;-50
2022/09/28 07:52:57;;;;;;;9.48;1.52;;;;;;;21.09;43.22;99678.28;16121145;19;130461;-55
2022/09/28 07:58:19;;;;;;;9.27;1.27;;;;;;;20.60;44.05;99686.47;16121600;19;129493;-51
2022/09/28 08:03:46;;;;;;;11.73;1.38;;;;;;;20.28;44.78;99711.97;16119624;19;132059;-51
2022/09/28 08:09:08;;;;;;;10.63;1.25;;;;;;;20.10;44.85;99710.69;16118339;19;130203;-52
2022/09/28 08:14:33;;;;;;;5.32;0.98;;;;;;;20.09;44.81;99715.44;16118005;19;129570;-54
2022/09/28 08:25:37;;;;;;;2.63;0.40;;;;;;;19.89;45.58;99715.47;16121421;19;129513;-50
2022/09/28 08:31:02;;;;;;;6.53;0.73;;;;;;;19.84;45.51;99719.09;16119635;19;129521;-50
2022/09/28 08:36:24;;;;;;;;;;;;;;;19.74;45.86;99719.16;16116156;19;129466;-50
2022/09/28 08:42:11;;;;;;;5.78;0.85;;;;;;;19.77;45.43;99715.81;16123163;19;129684;-51
2022/09/28 08:53:52;;;;;;;3.97;0.50;;;;;;;19.63;45.82;99719.19;16133364;19;129367;-53
2022/09/28 08:59:25;;;;;;;4.03;0.68;;;;;;;19.63;45.76;99735.84;16132712;19;129468;-54
2022/09/28 09:04:50;;;;;;;4.55;0.50;;;;;;;19.60;45.74;99725.31;16131285;19;129462;-53
2022/09/28 09:10:34;;;;;;;4.82;0.52;;;;;;;19.61;45.69;99726.16;16133436;19;130255;-56
2022/09/28 09:16:17;;;;;;;5.70;0.70;;;;;;;19.56;45.88;99732.53;16133483;19;129704;-53
2022/09/28 09:21:57;;;;;;;4.07;0.57;;;;;;;19.56;46.13;99734.47;16122887;19;129900;-55
2022/09/28 09:27:38;;;;;;;5.15;0.90;;;;;;;19.53;45.50;99736.69;16132151;19;129916;-53
2022/09/28 09:33:09;;;;;;;6.53;0.90;;;;;;;19.52;45.53;99739.75;16133086;19;129813;-53
2022/09/28 09:39:13;;;;;;;4.70;0.82;;;;;;;19.54;45.44;99743.09;16128919;19;132649;-50
2022/09/28 09:45:00;;;;;;;5.70;0.82;;;;;;;19.53;45.74;99735.88;16130304;19;129305;-53
2022/09/28 09:50:46;;;;;;;2.63;0.70;;;;;;;19.50;45.92;99737.28;16130508;19;129531;-51
2022/09/28 09:56:25;;;;;;;4.25;0.70;;;;;;;19.48;45.60;99733.09;16129178;19;129701;-52
2022/09/28 10:01:47;;;;;;;4.43;0.80;;;;;;;19.45;45.31;99728.97;16130635;19;129215;-53
2022/09/28 10:07:19;;;;;;;3.33;0.50;;;;;;;19.45;45.08;99730.88;16129498;19;129493;-52
2022/09/28 10:12:41;;;;;;;3.40;0.90;;;;;;;19.42;44.94;99731.47;16129747;19;129486;-55
2022/09/28 10:18:09;;;;;;;2.45;0.85;;;;;;;19.41;45.00;99722.31;16128315;19;129575;-54
2022/09/28 10:23:35;;;;;;;5.03;0.68;;;;;;;19.38;44.87;99729.25;16130601;19;129830;-51
2022/09/28 10:29:00;;;;;;;;;;;;;;;19.33;44.84;99726.47;16131645;19;135815;-51
2022/09/28 10:34:28;;;;;;;4.25;0.90;;;;;;;19.35;45.08;99729.81;16126970;19;129672;-49
2022/09/28 10:39:54;;;;;;;3.75;0.70;;;;;;;19.33;44.86;99734.78;16128398;19;129669;-52
2022/09/28 10:45:22;;;;;;;2.83;0.70;;;;;;;19.35;44.94;99735.34;16127839;19;130104;-53
2022/09/28 10:50:57;;;;;;;3.42;0.60;;;;;;;19.37;44.58;99726.78;16126708;19;130312;-52
2022/09/28 10:56:21;;;;;;;1.27;0.47;;;;;;;19.35;44.36;99727.03;16126220;19;129629;-53
2022/09/28 11:01:42;;;;;;;5.40;0.60;;;;;;;19.33;44.76;99726.47;16126287;19;129328;-52
2022/09/28 11:07:23;;;;;;;3.53;0.73;;;;;;;19.34;44.54;99728.13;16123072;19;129568;-51
2022/09/28 11:12:46;;;;;;;3.75;0.60;;;;;;;19.33;44.46;99733.97;16122548;19;129644;-52
2022/09/28 11:18:23;;;;;;;3.83;0.50;;;;;;;19.33;44.65;99734.78;16123520;19;129223;-50
2022/09/28 11:24:16;;;;;;;2.05;0.60;;;;;;;19.31;44.12;99728.72;16122467;19;129382;-53
2022/09/28 11:29:42;;;;;;;2.40;0.47;;;;;;;19.28;44.81;99733.97;16120995;19;129358;-49
2022/09/28 11:35:04;;;;;;;2.25;0.50;;;;;;;19.24;44.23;99733.72;16121606;19;129092;-51
2022/09/28 11:40:26;;;;;;;3.78;0.43;;;;;;;19.26;44.16;99731.50;16121228;19;130885;-50
2022/09/28 11:46:00;;;;;;;2.60;0.60;;;;;;;19.28;44.25;99740.38;16125294;19;129656;-50
2022/09/28 11:51:35;;;;;;;2.17;0.60;;;;;;;19.31;44.42;99727.88;16119992;19;129658;-53
2022/09/28 11:57:00;;;;;;;1.63;0.40;;;;;;;19.31;44.49;99728.72;16123739;19;130500;-52
2022/09/28 12:02:48;;;;;;;;;;;;;;;19.30;44.23;99738.16;16118113;19;129721;-55
2022/09/28 12:08:27;;;;;;;1.65;0.68;;;;;;;19.34;44.56;99733.69;16117536;19;131656;-50
2022/09/28 12:13:52;;;;;;;3.00;0.50;;;;;;;19.34;44.32;99738.41;16119557;19;130376;-52
2022/09/28 12:19:20;;;;;;;4.47;0.70;;;;;;;19.34;44.83;99735.63;16135457;19;129345;-53
2022/09/28 12:24:46;;;;;;;6.97;0.50;;;;;;;19.34;44.90;99733.69;16134832;19;130343;-52
2022/09/28 12:30:18;;;;;;;1.20;0.38;;;;;;;19.36;44.47;99736.19;16134746;19;129959;-50
2022/09/28 12:35:57;;;;;;;1.25;0.40;;;;;;;19.36;44.42;99734.25;16135550;19;129529;-52
2022/09/28 12:42:04;;;;;;;1.42;0.30;;;;;;;19.34;44.76;99742.00;16134296;19;129266;-53
2022/09/28 12:47:52;;;;;;;1.38;0.38;;;;;;;19.35;44.68;99737.31;16131567;19;129684;-53
2022/09/28 12:53:28;;;;;;;1.45;0.40;;;;;;;19.34;44.99;99738.41;16131861;19;129240;-50
2022/09/28 12:59:27;;;;;;;2.15;0.30;;;;;;;19.33;45.01;99745.88;16131144;19;129531;-49
2022/09/28 13:05:22;;;;;;;1.63;0.38;;;;;;;19.31;45.27;99745.38;16130551;19;131014;-51
2022/09/28 13:10:51;;;;;;;1.38;0.40;;;;;;;19.27;45.14;99741.47;16129603;19;129511;-51
2022/09/28 13:16:32;;;;;;;1.05;0.40;;;;;;;19.25;44.87;99737.31;16130232;19;130299;-52
2022/09/28 13:22:12;;;;;;;0.93;0.40;;;;;;;19.21;45.06;99734.25;16132239;19;129461;-53
2022/09/28 13:27:39;;;;;;;3.70;0.40;;;;;;;19.19;44.90;99736.47;16129630;19;129893;-51
2022/09/28 13:33:04;;;;;;;0.30;0.30;;;;;;;19.17;45.24;99733.97;16131302;19;130125;-56
2022/09/28 13:38:25;;;;;;;1.33;0.40;;;;;;;19.14;45.25;99728.97;16129059;19;129368;-54
2022/09/28 13:44:05;;;;;;;3.47;0.63;;;;;;;19.14;44.74;99722.59;16131213;19;129252;-54
2022/09/28 13:49:35;;;;;;;4.03;0.20;;;;;;;19.13;45.18;99732.03;16131707;19;129487;-53
2022/09/28 13:55:09;;;;;;;0.75;0.20;;;;;;;19.08;45.31;99730.91;16131545;19;130105;-52
2022/09/28 14:00:45;;;;;;;1.30;0.40;;;;;;;19.09;44.98;99731.75;16130636;19;133291;-52
2022/09/28 14:06:19;;;;;;;0.93;0.30;;;;;;;19.08;44.76;99736.47;16132008;19;130129;-55
2022/09/28 14:12:44;;;;;;;0.70;0.30;;;;;;;19.04;44.85;99740.91;16132036;19;129643;-55
2022/09/28 14:18:28;;;;;;;8.75;1.00;;;;;;;19.08;45.45;99738.41;16127410;19;129598;-56
2022/09/28 14:24:08;;;;;;;14.40;1.10;;;;;;;19.06;45.10;99744.25;16126756;19;130187;-49
2022/09/28 14:29:33;;;;;;;13.18;1.15;;;;;;;19.08;44.94;99732.88;16126997;19;128825;-53
2022/09/28 14:34:59;;;;;;;29.10;1.98;;;;;;;19.06;45.61;99730.38;16127006;19;130083;-41
2022/09/28 14:46:10;;;;;;;20.40;2.33;;;;;;;19.00;45.55;99734.25;16123503;19;128980;-40
2022/09/28 14:51:34;;;;;;;21.35;2.05;;;;;;;18.99;45.51;99732.59;16125220;19;129039;-40
2022/09/28 14:57:21;;;;;;;19.95;1.55;;;;;;;19.01;44.92;99735.09;16125898;19;129988;-44
2022/09/28 15:02:48;;;;;;;12.35;1.00;;;;;;;18.98;44.90;99742.00;16124119;19;129924;-40
2022/09/28 15:08:10;;;;;;;12.85;1.15;;;;;;;18.93;45.48;99725.41;16122956;19;131121;-42
2022/09/28 15:13:32;;;;;;;11.38;1.15;;;;;;;18.94;45.25;99732.59;16123450;19;130225;-40
2022/09/28 15:19:12;;;;;;;4.88;0.80;;;;;;;18.95;44.83;99733.44;16121947;19;129605;-40
2022/09/28 15:24:33;;;;;;;8.50;1.17;;;;;;;18.95;45.44;99737.06;16122282;19;130139;-39
2022/09/28 15:29:59;;;;;;;14.07;3.75;;;;;;;18.98;45.44;99742.00;16122886;19;129509;-40
2022/09/28 15:35:25;;;;;;;76.70;27.05;;;;;;;18.99;45.07;99746.44;16118570;19;129655;-39
2022/09/28 15:40:47;;;;;;;45.60;16.65;;;;;;;19.02;45.81;99748.69;16121929;19;129754;-39
2022/09/28 15:46:14;;;;;;;44.38;15.02;;;;;;;19.07;46.01;99757.00;16121740;19;130624;-40
2022/09/28 15:51:51;;;;;;;33.78;13.55;;;;;;;19.11;46.25;99759.19;16118179;19;129914;-40
2022/09/28 15:57:31;;;;;;;35.15;13.13;;;;;;;19.12;46.61;99766.41;16120832;19;129336;-40
2022/09/28 16:03:21;;;;;;;32.47;12.30;;;;;;;19.12;46.79;99767.25;16117736;19;130415;-40
2022/09/28 16:08:45;;;;;;;33.78;10.63;;;;;;;19.12;46.35;99761.72;16118683;19;129709;-39
2022/09/28 16:14:22;;;;;;;22.92;10.10;;;;;;;19.15;46.71;99760.31;16114381;19;130282;-40
2022/09/28 16:19:47;;;;;;;27.38;9.23;;;;;;;19.13;46.79;99765.28;16119370;19;129541;-45
2022/09/28 16:25:18;;;;;;;26.53;10.00;;;;;;;19.14;47.13;99776.09;16119948;19;129231;-41
2022/09/28 16:30:58;;;;;;;28.35;9.05;;;;;;;19.15;47.04;99771.41;16116393;19;129842;-40
2022/09/28 16:36:22;;;;;;;26.30;8.82;;;;;;;19.13;46.93;99776.38;16114228;19;129849;-42
2022/09/28 16:41:58;;;;;;;27.20;8.02;;;;;;;19.12;46.82;99775.56;16116555;19;129502;-42
2022/09/28 16:47:20;;;;;;;22.88;6.68;;;;;;;19.07;46.88;99772.78;16117273;19;129338;-41
2022/09/28 16:58:23;;;;;;;18.08;6.38;;;;;;;19.03;46.60;99779.97;16112806;19;129305;-41
2022/09/28 17:03:47;;;;;;;24.25;5.90;;;;;;;18.98;46.60;99778.03;16124213;19;130388;-41
2022/09/28 17:09:11;;;;;;;33.35;6.35;;;;;;;19.00;46.76;99781.38;16128783;19;130789;-43
2022/09/28 17:14:33;;;;;;;18.70;5.43;;;;;;;19.01;46.53;99785.81;16130602;19;129576;-41
2022/09/28 17:19:55;;;;;;;12.90;4.25;;;;;;;19.02;46.54;99779.16;16127142;19;129440;-40
2022/09/28 17:25:21;;;;;;;16.42;4.57;;;;;;;19.02;46.81;99787.47;16128503;19;130330;-44
2022/09/28 17:30:43;;;;;;;15.10;4.40;;;;;;;19.03;47.14;99793.84;16129912;19;129358;-41
2022/09/28 17:36:05;;;;;;;13.80;4.15;;;;;;;19.01;46.99;99787.75;16125541;19;130383;-41
2022/09/28 17:41:27;;;;;;;17.30;4.10;;;;;;;19.04;47.46;99796.34;16127578;19;130125;-41
2022/09/28 17:46:49;;;;;;;26.55;4.05;;;;;;;19.06;47.39;99802.47;16129452;19;129740;-43
2022/09/28 17:52:12;;;;;;;17.13;3.63;;;;;;;19.10;47.56;99799.97;16125556;19;135044;-43
2022/09/28 17:57:33;;;;;;;18.60;3.78;;;;;;;19.12;47.34;99802.44;16127043;19;129405;-42
2022/09/28 18:02:57;;;;;;;28.48;4.18;;;;;;;19.12;47.87;99813.53;16127670;19;129892;-42
2022/09/28 18:08:20;;;;;;;28.08;3.33;;;;;;;19.14;47.33;99811.31;16125397;19;129422;-42
2022/09/28 18:13:44;;;;;;;26.08;3.33;;;;;;;19.15;47.74;99810.22;16125352;19;129336;-41
2022/09/28 18:19:06;;;;;;;15.57;2.37;;;;;;;19.14;47.81;99816.88;16128500;19;129873;-43
2022/09/28 18:24:28;;;;;;;24.38;2.80;;;;;;;19.12;47.74;99816.31;16126710;19;129819;-41
2022/09/28 18:29:50;;;;;;;8.45;2.28;;;;;;;19.11;48.00;99818.25;16130069;19;130928;-41
2022/09/28 18:35:12;;;;;;;12.02;2.42;;;;;;;19.11;47.85;99828.50;16126696;19;130794;-41
2022/09/28 18:40:34;;;;;;;13.88;2.20;;;;;;;19.08;47.79;99836.25;16125263;19;129136;-41
2022/09/28 18:45:56;;;;;;;10.77;2.15;;;;;;;19.07;47.81;99834.63;16126101;19;133998;-41
2022/09/28 18:51:19;;;;;;;8.48;1.98;;;;;;;19.08;48.04;99836.25;16123391;19;129582;-41
2022/09/28 18:56:41;;;;;;;7.85;1.90;;;;;;;19.06;48.25;99827.41;16124327;19;129598;-41
2022/09/28 19:02:03;;;;;;;14.40;2.05;;;;;;;19.07;47.99;99833.78;16123161;19;129246;-43
2022/09/28 19:07:25;;;;;;;16.42;2.17;;;;;;;19.06;48.34;99835.72;16121896;19;130467;-40
2022/09/28 19:12:47;;;;;;;11.95;2.05;;;;;;;19.06;48.18;99844.03;16116935;19;130297;-39
2022/09/28 19:18:09;;;;;;;11.88;2.20;;;;;;;19.05;48.75;99847.91;16121273;19;129403;-42
2022/09/28 19:23:31;;;;;;;14.63;2.05;;;;;;;19.07;48.64;99845.72;16122772;19;129673;-39
2022/09/28 19:28:57;;;;;;;27.52;3.08;;;;;;;19.09;48.50;99853.72;16121641;19;129489;-40
2022/09/28 19:34:19;;;;;;;15.85;2.10;;;;;;;19.11;48.76;99861.75;16119828;19;130128;-41
2022/09/28 19:39:40;;;;;;;31.75;2.97;;;;;;;19.14;49.02;99856.50;16122287;19;129454;-42
2022/09/28 19:45:09;;;;;;;20.63;2.20;;;;;;;19.16;48.87;99853.47;16118428;19;129680;-40
2022/09/28 19:50:31;;;;;;;22.63;2.92;;;;;;;19.18;48.96;99857.63;16121994;19;130233;-40
2022/09/28 19:55:55;;;;;;;17.13;2.58;;;;;;;19.20;49.10;99857.34;16122455;19;129426;-40
2022/09/28 20:01:17;;;;;;;18.38;2.30;;;;;;;19.21;49.00;99859.03;16119692;19;129839;-42
2022/09/28 20:06:39;;;;;;;13.40;1.85;;;;;;;19.22;48.74;99861.53;16119927;19;130159;-39
2022/09/28 20:12:01;;;;;;;11.23;1.33;;;;;;;19.24;48.81;99861.25;16118315;19;130092;-43
2022/09/28 20:17:23;;;;;;;10.95;1.75;;;;;;;19.25;48.41;99860.16;16114941;19;129298;-44
2022/09/28 20:22:44;;;;;;;14.75;1.50;;;;;;;19.22;48.60;99857.91;16117460;19;129624;-40
2022/09/28 20:28:06;;;;;;;18.50;2.05;;;;;;;19.21;48.65;99867.34;16111976;19;129666;-40
2022/09/28 20:33:29;;;;;;;11.10;1.17;;;;;;;19.18;48.48;99873.44;16117602;19;130206;-42
2022/09/28 20:38:53;;;;;;;8.20;1.75;;;;;;;19.17;48.02;99877.31;16127757;19;129587;-40
2022/09/28 20:44:14;;;;;;;11.20;1.30;;;;;;;19.13;48.20;99873.41;16131966;19;129306;-41
2022/09/28 20:49:36;;;;;;;9.05;1.40;;;;;;;19.09;48.02;99873.13;16133956;19;131167;-41
2022/09/28 20:54:58;;;;;;;12.73;1.50;;;;;;;19.06;48.36;99880.06;16132039;19;129496;-40
2022/09/28 21:00:20;;;;;;;7.05;1.33;;;;;;;19.03;48.36;99880.63;16116660;19;132904;-40
2022/09/28 21:05:42;;;;;;;10.35;1.23;;;;;;;19.02;48.01;99881.72;16117349;19;129651;-40
2022/09/28 21:11:03;;;;;;;8.27;1.10;;;;;;;19.00;47.86;99878.38;16119170;19;129498;-43
2022/09/28 21:16:27;;;;;;;3.08;0.80;;;;;;;18.98;48.10;99874.22;16127859;19;129702;-40
2022/09/28 21:21:50;;;;;;;4.75;0.93;;;;;;;18.96;47.98;99874.50;16128482;19;129516;-40
2022/09/28 21:27:11;;;;;;;5.32;1.10;;;;;;;18.94;48.01;99879.50;16126868;19;134431;-40
2022/09/28 21:32:34;;;;;;;7.80;1.00;;;;;;;18.93;48.09;99877.84;16129511;19;129652;-40
2022/09/28 21:37:56;;;;;;;4.32;0.82;;;;;;;18.90;48.18;99872.81;16127584;19;129690;-40
2022/09/28 21:43:17;;;;;;;8.50;1.00;;;;;;;18.88;48.35;99875.03;16119862;19;129511;-41
2022/09/28 21:48:39;;;;;;;3.63;0.82;;;;;;;18.86;47.87;99877.25;16120128;19;129927;-42
2022/09/28 21:54:01;;;;;;;2.90;0.82;;;;;;;18.85;48.11;99883.88;16126839;19;129969;-40
2022/09/28 21:59:23;;;;;;;4.47;1.05;;;;;;;18.83;48.29;99888.91;16126338;19;128862;-41
2022/09/28 22:04:45;;;;;;;3.80;0.65;;;;;;;18.82;48.23;99892.78;16126372;19;130570;-47
2022/09/28 22:10:12;;;;;;;1.55;0.73;;;;;;;18.80;48.03;99900.53;16124014;19;129170;-38
2022/09/28 22:15:33;;;;;;;4.03;0.80;;;;;;;18.79;48.16;99893.31;16124305;19;130291;-37
2022/09/28 22:21:08;;;;;;;1.67;0.70;;;;;;;18.80;48.08;99894.97;16127911;19;129641;-38
2022/09/28 22:26:32;;;;;;;2.85;0.60;;;;;;;18.76;47.94;99909.38;16128404;19;130497;-40
2022/09/28 22:32:00;;;;;;;2.60;0.75;;;;;;;18.75;47.98;99902.16;16123315;19;130109;-40
2022/09/28 22:37:24;;;;;;;1.92;0.60;;;;;;;18.75;47.88;99895.81;16122490;19;130453;-40
2022/09/28 22:42:46;;;;;;;3.22;0.80;;;;;;;18.72;47.89;99905.47;16125175;19;130254;-41
2022/09/28 22:48:08;;;;;;;3.45;0.70;;;;;;;18.71;47.88;99906.56;16124650;19;129022;-40
2022/09/28 22:53:32;;;;;;;2.03;0.60;;;;;;;18.71;47.90;99905.75;16125687;19;129461;-40
2022/09/28 22:58:54;;;;;;;1.38;0.57;;;;;;;18.70;48.06;99906.84;16119233;19;130218;-40
2022/09/28 23:04:15;;;;;;;1.45;0.75;;;;;;;18.69;47.86;99896.88;16122454;19;130093;-39
2022/09/28 23:09:37;;;;;;;2.00;0.50;;;;;;;18.66;47.73;99902.94;16119368;19;129827;-40
2022/09/28 23:14:58;;;;;;;1.60;0.60;;;;;;;18.64;47.59;99896.88;16121749;19;130636;-40
2022/09/28 23:20:21;;;;;;;2.13;0.60;;;;;;;18.64;48.02;99897.69;16123532;19;129772;-40
2022/09/28 23:25:42;;;;;;;2.33;0.60;;;;;;;18.62;47.54;99899.91;16121283;19;130836;-38
2022/09/28 23:31:17;;;;;;;0.77;0.50;;;;;;;18.63;47.90;99895.19;16118111;19;129722;-39
2022/09/28 23:36:39;;;;;;;0.95;0.60;;;;;;;18.62;47.79;99899.91;16123341;19;129261;-39
2022/09/28 23:42:01;;;;;;;0.95;0.50;;;;;;;18.61;47.54;99899.06;16119415;19;130187;-39
2022/09/28 23:47:23;;;;;;;1.83;0.38;;;;;;;18.60;47.41;99902.09;16118956;19;129785;-39
2022/09/28 23:52:47;;;;;;;1.55;0.50;;;;;;;18.58;47.62;99896.84;16117252;19;129388;-39
2022/09/28 23:58:10;;;;;;;2.75;0.57;;;;;;;18.58;47.51;99894.06;16117191;19;129660;-39
